Acari, Brazil
Current Conditions -  °F | °C
As of 11:15 PM on Wednesday 22 Oct 2014 (Local Time) from SBKG Reporting Station
Broken Clouds Broken Clouds  
Wind Chill: 68°   Ceiling: 1000
Heat Index: 68°   Visibility: 6mi
Dew Point: 68°   Wind: 2mph
Humidity: 100%   Direction: 120°ESE
Pressure: 30.06"   Gusts: NA
Location:  6.44°S, 36.64°W
Report Text: SBKG 230215Z 12002KT 9999 BKN010 20/20 Q1018
Loading
Personal Weather Stations






























Interactive Weather Map
Tropical Storm Tracking
New forecast layout! Learn more

10-Day Weather Forecast

Advertisements
Track Severe Weather on mobile